createdAt,value
2023-01-03T00:01:10.826Z,102193.16
2023-01-03T00:03:36.378Z,102191.47
2023-01-03T00:06:01.940Z,102187.63
2023-01-03T00:08:27.972Z,102193.16
2023-01-03T00:10:53.544Z,102190.66
2023-01-03T00:13:19.106Z,102191.47
2023-01-03T00:15:44.654Z,102196.16
2023-01-03T00:18:10.209Z,102181.50
2023-01-03T00:20:35.776Z,102197.84
2023-01-03T00:23:01.409Z,102191.47
2023-01-03T00:25:27.167Z,102195.09
2023-01-03T00:27:52.729Z,102197.84
2023-01-03T00:30:18.305Z,102197.84
2023-01-03T00:32:43.877Z,102199.75
2023-01-03T00:35:09.430Z,102194.25
2023-01-03T00:37:34.994Z,102200.59
2023-01-03T00:40:00.551Z,102192.31
2023-01-03T00:42:26.129Z,102203.34
2023-01-03T00:44:51.676Z,102200.59
2023-01-03T00:47:17.247Z,102200.59
2023-01-03T00:49:42.804Z,102199.75
2023-01-03T00:52:08.370Z,102201.69
2023-01-03T00:54:33.933Z,102206.13
2023-01-03T00:56:59.496Z,102199.75
2023-01-03T00:59:25.059Z,102208.88
2023-01-03T01:01:53.471Z,102208.88
2023-01-03T01:04:21.169Z,102206.94
2023-01-03T01:06:47.667Z,102211.63
2023-01-03T01:09:14.227Z,102222.66
2023-01-03T01:11:40.312Z,102225.44
2023-01-03T01:14:21.245Z,102225.44
2023-01-03T01:16:49.519Z,102233.72
2023-01-03T01:19:15.404Z,102231.78
2023-01-03T01:21:41.126Z,102236.47
2023-01-03T01:24:06.683Z,102233.72
2023-01-03T01:26:32.258Z,102238.38
2023-01-03T01:28:57.847Z,102243.91
2023-01-03T01:31:24.069Z,102239.22
2023-01-03T01:33:50.147Z,102251.09
2023-01-03T01:36:17.032Z,102253.03
2023-01-03T01:38:42.953Z,102254.94
2023-01-03T01:41:10.756Z,102250.25
2023-01-03T01:44:13.700Z,102253.03
2023-01-03T01:46:39.321Z,102260.47
2023-01-03T01:49:04.924Z,102275.09
2023-01-03T01:51:31.423Z,102276.75
2023-01-03T01:53:58.862Z,102281.44
2023-01-03T01:56:25.421Z,102281.44
2023-01-03T01:58:51.595Z,102287.22
2023-01-03T02:01:18.155Z,102289.97
2023-01-03T02:03:44.112Z,102286.97
2023-01-03T02:06:10.310Z,102284.22
2023-01-03T02:08:36.112Z,102278.94
2023-01-03T02:13:59.266Z,102286.13
2023-01-03T02:16:36.977Z,102288.88
2023-01-03T02:19:10.043Z,102288.88
2023-01-03T02:21:55.494Z,102291.66
2023-01-03T02:24:25.580Z,102290.81
2023-01-03T02:27:00.713Z,102294.41
2023-01-03T02:29:46.149Z,102301.59
2023-01-03T02:32:16.004Z,102294.41
2023-01-03T02:34:47.299Z,102295.25
2023-01-03T02:37:32.751Z,102300.75
2023-01-03T02:40:01.152Z,102300.75
2023-01-03T02:42:49.560Z,102299.09
2023-01-03T02:45:17.886Z,102301.84
2023-01-03T02:47:45.480Z,102298.00
2023-01-03T02:50:11.634Z,102294.41
2023-01-03T02:52:37.204Z,102294.41
2023-01-03T02:55:04.511Z,102302.69
2023-01-03T02:57:34.022Z,102297.16
2023-01-03T03:00:07.203Z,102300.75
2023-01-03T03:02:33.078Z,102293.56
2023-01-03T03:04:58.811Z,102294.41
2023-01-03T03:07:25.065Z,102299.09
2023-01-03T03:10:10.522Z,102301.84
2023-01-03T03:12:56.727Z,102306.28
2023-01-03T03:15:23.081Z,102309.03
2023-01-03T03:17:48.914Z,102299.94
2023-01-03T03:20:35.035Z,102305.44
2023-01-03T03:23:23.610Z,102305.66
2023-01-03T03:25:50.073Z,102305.44
2023-01-03T03:28:36.056Z,102308.19
2023-01-03T03:31:17.824Z,102302.69
2023-01-03T03:33:46.555Z,102298.25
2023-01-03T03:36:15.099Z,102302.69
2023-01-03T03:38:42.353Z,102299.94
2023-01-03T03:41:35.048Z,102310.97
2023-01-03T03:44:22.353Z,102305.44
2023-01-03T03:46:54.793Z,102304.63
2023-01-03T03:49:40.764Z,102304.63
2023-01-03T03:52:08.329Z,102303.53
2023-01-03T03:54:34.320Z,102301.84
2023-01-03T03:57:02.333Z,102299.94
2023-01-03T03:59:27.916Z,102296.34
2023-01-03T04:01:53.544Z,102300.75
2023-01-03T04:04:20.879Z,102288.88
2023-01-03T04:06:47.781Z,102302.69
2023-01-03T04:09:13.335Z,102303.53
2023-01-03T04:11:38.903Z,102304.63
2023-01-03T04:14:04.470Z,102310.13
2023-01-03T04:16:30.114Z,102307.38
2023-01-03T04:18:55.715Z,102306.28
2023-01-03T04:21:21.340Z,102310.13
2023-01-03T04:23:46.894Z,102309.03
2023-01-03T04:26:12.455Z,102310.13
2023-01-03T04:28:38.002Z,102307.38
2023-01-03T04:31:03.581Z,102303.78
2023-01-03T04:33:29.137Z,102299.09
2023-01-03T04:35:54.683Z,102291.66
2023-01-03T04:38:20.247Z,102302.69
2023-01-03T04:40:46.012Z,102301.84
2023-01-03T04:43:31.488Z,102306.53
2023-01-03T04:45:57.051Z,102306.28
2023-01-03T04:48:22.628Z,102309.28
2023-01-03T04:50:55.865Z,102310.13
2023-01-03T04:53:22.248Z,102305.66
2023-01-03T04:55:48.691Z,102310.97
2023-01-03T04:58:14.255Z,102302.69
2023-01-03T05:00:39.854Z,102307.38
2023-01-03T05:03:05.428Z,102313.72
2023-01-03T05:05:30.972Z,102313.72
2023-01-03T05:07:56.543Z,102309.88
2023-01-03T05:10:22.110Z,102310.97
2023-01-03T05:12:58.910Z,102311.81
2023-01-03T05:15:25.044Z,102304.63
2023-01-03T05:17:50.606Z,102310.13
2023-01-03T05:20:36.060Z,102309.03
2023-01-03T05:23:21.598Z,102309.03
2023-01-03T05:25:50.112Z,102310.97
2023-01-03T05:28:17.682Z,102308.19
2023-01-03T05:30:43.398Z,102308.19
2023-01-03T05:33:08.963Z,102308.19
2023-01-03T05:35:34.519Z,102308.19
2023-01-03T05:38:00.089Z,102310.97
2023-01-03T05:40:25.630Z,102304.63
2023-01-03T05:42:51.179Z,102305.44
2023-01-03T05:45:16.732Z,102298.25
2023-01-03T05:47:42.299Z,102295.50
2023-01-03T05:50:07.905Z,102299.09
2023-01-03T05:52:33.481Z,102293.56
2023-01-03T05:54:59.028Z,102298.00
2023-01-03T05:57:24.600Z,102296.34
2023-01-03T05:59:50.150Z,102296.34
2023-01-03T06:02:15.852Z,102293.56
2023-01-03T06:04:41.569Z,102293.56
2023-01-03T06:07:07.136Z,102298.25
2023-01-03T06:09:32.707Z,102306.53
2023-01-03T06:11:58.263Z,102310.13
2023-01-03T06:14:23.816Z,102308.19
2023-01-03T06:17:09.401Z,102308.19
2023-01-03T06:19:35.023Z,102305.44
2023-01-03T06:22:03.293Z,102295.50
2023-01-03T06:24:34.154Z,102293.56
2023-01-03T06:26:59.707Z,102304.63
2023-01-03T06:29:25.259Z,102306.53
2023-01-03T06:31:50.806Z,102310.97
2023-01-03T06:34:16.383Z,102303.78
2023-01-03T06:36:41.948Z,102306.53
2023-01-03T06:39:08.020Z,102310.13
2023-01-03T06:41:33.581Z,102314.81
2023-01-03T06:43:59.137Z,102311.19
2023-01-03T06:46:44.658Z,102310.34
2023-01-03T06:49:37.246Z,102309.28
2023-01-03T06:52:23.396Z,102307.38
2023-01-03T06:54:48.960Z,102301.84
2023-01-03T06:57:26.306Z,102301.00
2023-01-03T06:59:52.635Z,102307.38
2023-01-03T07:02:18.346Z,102304.63
2023-01-03T07:04:44.048Z,102301.00
2023-01-03T07:07:09.646Z,102299.94
2023-01-03T07:09:35.197Z,102291.66
2023-01-03T07:12:20.697Z,102299.94
2023-01-03T07:14:46.247Z,102293.56
2023-01-03T07:17:15.485Z,102301.84
2023-01-03T07:19:41.032Z,102297.16
2023-01-03T07:22:06.594Z,102305.44
2023-01-03T07:24:32.161Z,102309.28
2023-01-03T07:26:57.730Z,102312.88
2023-01-03T07:29:23.282Z,102307.38
2023-01-03T07:31:48.879Z,102307.38
2023-01-03T07:34:14.516Z,102306.53
2023-01-03T07:36:40.087Z,102312.06
2023-01-03T07:39:05.641Z,102310.13
2023-01-03T07:41:51.109Z,102307.59
2023-01-03T07:44:16.664Z,102312.88
2023-01-03T07:46:42.350Z,102309.28
2023-01-03T07:49:11.462Z,102315.66
2023-01-03T07:51:37.909Z,102317.56
2023-01-03T07:54:03.488Z,102323.94
2023-01-03T07:56:29.083Z,102318.41
2023-01-03T07:58:54.643Z,102319.47
2023-01-03T08:01:21.403Z,102323.09
2023-01-03T08:03:47.052Z,102318.41
2023-01-03T08:06:13.554Z,102320.34
2023-01-03T08:08:39.475Z,102336.88
2023-01-03T08:11:24.972Z,102332.19
2023-01-03T08:13:50.806Z,102325.84
2023-01-03T08:16:17.476Z,102322.22
2023-01-03T08:18:43.268Z,102332.19
2023-01-03T08:21:10.436Z,102329.44
2023-01-03T08:23:36.002Z,102328.59
2023-01-03T08:26:02.692Z,102334.13
2023-01-03T08:28:28.451Z,102323.94
2023-01-03T08:30:54.037Z,102324.75
2023-01-03T08:33:19.806Z,102321.16
2023-01-03T08:35:47.124Z,102338.56
2023-01-03T08:38:14.335Z,102329.44
2023-01-03T08:40:42.408Z,102331.38
2023-01-03T08:43:08.188Z,102334.97
2023-01-03T08:45:33.736Z,102332.19
2023-01-03T08:48:00.602Z,102345.16
2023-01-03T08:50:26.364Z,102345.16
2023-01-03T08:52:52.054Z,102346.00
2023-01-03T08:55:17.744Z,102349.59
2023-01-03T08:57:43.314Z,102352.56
2023-01-03T09:00:09.205Z,102358.97
2023-01-03T09:02:35.679Z,102356.19
2023-01-03T09:05:01.463Z,102357.88
2023-01-03T09:07:27.068Z,102358.97
2023-01-03T09:09:52.632Z,102359.78
2023-01-03T09:12:18.212Z,102366.38
2023-01-03T09:14:43.773Z,102362.56
2023-01-03T09:17:09.341Z,102366.16
2023-01-03T09:19:34.918Z,102356.19
2023-01-03T09:22:00.493Z,102367.25
2023-01-03T09:24:26.051Z,102364.47
2023-01-03T09:26:54.757Z,102363.63
2023-01-03T09:29:20.758Z,102374.44
2023-01-03T09:31:46.416Z,102364.47
2023-01-03T09:34:11.998Z,102366.72
2023-01-03T09:36:37.889Z,102364.81
2023-01-03T09:39:03.769Z,102358.72
2023-01-03T09:41:29.334Z,102359.53
2023-01-03T09:43:55.903Z,102362.56
2023-01-03T09:46:22.163Z,102366.97
2023-01-03T09:48:48.092Z,102366.97
2023-01-03T09:51:35.858Z,102371.66
2023-01-03T09:54:21.303Z,102374.44
2023-01-03T09:57:06.794Z,102368.06
2023-01-03T09:59:52.681Z,102376.34
2023-01-03T10:05:11.925Z,102374.44
2023-01-03T10:07:45.390Z,102368.91
2023-01-03T10:10:14.876Z,102371.66
2023-01-03T10:12:44.868Z,102376.34
2023-01-03T10:15:15.085Z,102376.34
2023-01-03T10:17:44.316Z,102370.84
2023-01-03T10:20:13.279Z,102378.28
2023-01-03T10:22:38.839Z,102373.59
2023-01-03T10:27:43.403Z,102367.25
2023-01-03T10:30:11.885Z,102370.84
2023-01-03T10:32:57.694Z,102368.06
2023-01-03T10:35:27.311Z,102367.25
2023-01-03T10:37:53.395Z,102368.06
2023-01-03T10:40:19.120Z,102363.63
2023-01-03T10:42:44.921Z,102360.63
2023-01-03T10:45:13.425Z,102359.78
2023-01-03T10:47:38.987Z,102363.38
2023-01-03T10:50:05.134Z,102365.06
2023-01-03T10:52:31.849Z,102358.97
2023-01-03T10:54:59.191Z,102360.63
2023-01-03T10:57:33.113Z,102365.31
2023-01-03T10:59:58.665Z,102360.63
2023-01-03T11:02:24.523Z,102358.97
2023-01-03T11:05:03.646Z,102357.88
2023-01-03T11:07:29.232Z,102350.69
2023-01-03T11:09:56.222Z,102353.19
2023-01-03T11:12:30.014Z,102349.59
2023-01-03T11:14:56.318Z,102348.75
2023-01-03T11:17:22.672Z,102346.00
2023-01-03T11:19:48.688Z,102352.34
2023-01-03T11:22:37.639Z,102348.75
2023-01-03T11:27:53.268Z,102354.03
2023-01-03T11:30:35.973Z,102348.75
2023-01-03T11:33:15.059Z,102353.19
2023-01-03T11:36:00.598Z,102350.44
2023-01-03T11:38:29.706Z,102344.91
2023-01-03T11:41:15.173Z,102333.25
2023-01-03T11:44:00.709Z,102336.88
2023-01-03T11:46:46.248Z,102334.97
2023-01-03T11:49:31.705Z,102335.78
2023-01-03T11:52:00.338Z,102334.97
2023-01-03T11:54:33.623Z,102327.53
2023-01-03T11:56:59.614Z,102310.97
2023-01-03T11:59:35.266Z,102321.16
2023-01-03T12:02:21.381Z,102313.72
2023-01-03T12:05:06.906Z,102315.66
2023-01-03T12:07:48.397Z,102301.59
2023-01-03T12:10:34.305Z,102300.75
2023-01-03T12:13:03.424Z,102301.84
2023-01-03T12:15:45.042Z,102289.72
2023-01-03T12:18:30.521Z,102292.47
2023-01-03T12:20:57.947Z,102285.28
2023-01-03T12:23:32.753Z,102288.88
2023-01-03T12:26:00.118Z,102289.72
2023-01-03T12:28:27.586Z,102279.53
2023-01-03T12:30:57.089Z,102282.28
2023-01-03T12:36:28.093Z,102276.19
2023-01-03T12:38:58.784Z,102280.63
2023-01-03T12:41:44.276Z,102282.28
2023-01-03T12:44:12.254Z,102278.69
2023-01-03T12:46:39.568Z,102273.16
2023-01-03T12:49:10.340Z,102266.81
2023-01-03T12:51:35.905Z,102264.06
2023-01-03T12:56:40.643Z,102271.50
2023-01-03T12:59:08.805Z,102263.22
2023-01-03T13:01:39.176Z,102264.06
2023-01-03T13:04:08.012Z,102269.56
2023-01-03T13:06:34.965Z,102269.56
2023-01-03T13:09:03.522Z,102269.56
2023-01-03T13:14:04.942Z,102278.69
2023-01-03T13:16:36.725Z,102275.94
2023-01-03T13:19:22.277Z,102270.41
2023-01-03T13:21:50.264Z,102275.09
2023-01-03T13:24:35.714Z,102269.56
2023-01-03T13:32:26.779Z,102258.53
2023-01-03T13:34:56.008Z,102257.44
2023-01-03T13:37:22.748Z,102253.03
2023-01-03T13:39:51.968Z,102243.91
2023-01-03T13:42:36.745Z,102253.84
2023-01-03T13:45:22.187Z,102254.94
2023-01-03T13:47:48.116Z,102251.09
2023-01-03T13:50:29.368Z,102244.75
2023-01-03T13:52:56.653Z,102243.91
2023-01-03T13:55:37.990Z,102235.63
2023-01-03T13:58:04.292Z,102249.16
2023-01-03T14:00:29.876Z,102253.84
2023-01-03T14:03:02.673Z,102259.38
2023-01-03T14:05:31.994Z,102261.28
2023-01-03T14:08:00.985Z,102265.97
2023-01-03T14:10:30.645Z,102264.06
2023-01-03T14:12:59.945Z,102258.53
2023-01-03T14:15:26.929Z,102257.72
2023-01-03T14:17:54.835Z,102255.78
2023-01-03T14:20:21.378Z,102262.97
2023-01-03T14:22:48.028Z,102261.28
2023-01-03T14:25:33.521Z,102265.72
2023-01-03T14:27:59.660Z,102262.97
2023-01-03T14:30:27.733Z,102266.56
2023-01-03T14:32:53.301Z,102267.66
2023-01-03T14:35:34.631Z,102267.66
2023-01-03T14:38:06.198Z,102266.81
2023-01-03T14:40:32.454Z,102271.25
2023-01-03T14:42:58.012Z,102276.75
2023-01-03T14:45:23.562Z,102264.91
2023-01-03T14:47:50.738Z,102272.09
2023-01-03T14:50:18.909Z,102271.25
2023-01-03T14:52:45.149Z,102267.66
2023-01-03T14:55:15.139Z,102264.06
2023-01-03T14:57:41.335Z,102275.09
2023-01-03T15:00:07.253Z,102279.53
2023-01-03T15:02:35.633Z,102277.59
2023-01-03T15:05:01.749Z,102278.69
2023-01-03T15:07:38.102Z,102271.25
2023-01-03T15:10:04.603Z,102280.34
2023-01-03T15:12:30.163Z,102265.72
2023-01-03T15:14:55.737Z,102271.25
2023-01-03T15:17:22.705Z,102270.41
2023-01-03T15:19:49.990Z,102275.09
2023-01-03T15:22:19.691Z,102279.53
2023-01-03T15:24:46.076Z,102273.16
2023-01-03T15:27:32.183Z,102270.41
2023-01-03T15:30:13.901Z,102258.53
2023-01-03T15:32:56.733Z,102266.56
2023-01-03T15:35:26.851Z,102272.09
2023-01-03T15:37:52.822Z,102268.47
2023-01-03T15:40:18.375Z,102262.13
2023-01-03T15:43:03.926Z,102271.25
2023-01-03T15:45:33.044Z,102264.91
2023-01-03T15:47:58.844Z,102265.72
2023-01-03T15:50:24.794Z,102259.38
2023-01-03T15:52:50.383Z,102267.41
2023-01-03T15:55:16.171Z,102266.81
2023-01-03T15:57:42.325Z,102268.47
2023-01-03T16:00:09.877Z,102262.13
2023-01-03T16:02:35.549Z,102253.84
2023-01-03T16:05:01.188Z,102257.44
2023-01-03T16:07:26.894Z,102257.44
2023-01-03T16:09:52.447Z,102259.13
2023-01-03T16:12:19.419Z,102268.47
2023-01-03T16:14:45.769Z,102263.81
2023-01-03T16:17:13.534Z,102269.31
2023-01-03T16:19:39.104Z,102268.47
2023-01-03T16:24:50.796Z,102261.03
2023-01-03T16:27:18.825Z,102263.81
2023-01-03T16:29:44.398Z,102255.53
2023-01-03T16:32:16.564Z,102254.69
2023-01-03T16:34:42.138Z,102258.28
2023-01-03T16:37:08.330Z,102261.03
2023-01-03T16:39:33.903Z,102261.88
2023-01-03T16:42:14.502Z,102263.81
2023-01-03T16:44:41.194Z,102264.63
2023-01-03T16:47:10.280Z,102258.28
2023-01-03T16:49:35.858Z,102252.75
2023-01-03T16:52:02.165Z,102250.84
2023-01-03T16:54:27.715Z,102250.00
2023-01-03T16:56:53.467Z,102250.84
2023-01-03T16:59:19.699Z,102258.28
2023-01-03T17:01:45.840Z,102258.28
2023-01-03T17:04:11.493Z,102258.28
2023-01-03T17:06:38.613Z,102252.75
2023-01-03T17:09:11.446Z,102259.13
2023-01-03T17:11:37.000Z,102262.72
2023-01-03T17:14:02.670Z,102259.13
2023-01-03T17:16:28.542Z,102257.19
2023-01-03T17:18:54.907Z,102261.88
2023-01-03T17:21:25.158Z,102257.19
2023-01-03T17:23:51.854Z,102260.22
2023-01-03T17:26:17.874Z,102255.53
2023-01-03T17:28:43.622Z,102256.34
2023-01-03T17:31:13.294Z,102258.28
2023-01-03T17:33:38.955Z,102256.34
2023-01-03T17:36:04.600Z,102257.44
2023-01-03T17:38:30.168Z,102253.59
2023-01-03T17:40:56.476Z,102256.34
2023-01-03T17:43:22.675Z,102256.34
2023-01-03T17:46:08.772Z,102256.34
2023-01-03T17:48:54.285Z,102252.53
2023-01-03T17:51:20.129Z,102254.44
2023-01-03T17:53:45.695Z,102250.84
2023-01-03T17:56:12.986Z,102250.84
2023-01-03T17:58:38.542Z,102250.84
2023-01-03T18:01:05.063Z,102246.16
2023-01-03T18:03:31.151Z,102249.78
2023-01-03T18:05:56.776Z,102243.41
2023-01-03T18:08:22.361Z,102237.03
2023-01-03T18:10:47.915Z,102237.88
2023-01-03T18:13:33.369Z,102237.03
2023-01-03T18:15:59.121Z,102228.75
2023-01-03T18:18:25.234Z,102229.84
2023-01-03T18:20:51.041Z,102232.34
2023-01-03T18:23:17.919Z,102235.13
2023-01-03T18:25:43.540Z,102227.72
2023-01-03T18:28:09.098Z,102235.13
2023-01-03T18:30:34.643Z,102223.25
2023-01-03T18:33:00.203Z,102224.09
2023-01-03T18:35:30.955Z,102230.47
2023-01-03T18:38:01.152Z,102228.75
2023-01-03T18:40:26.816Z,102219.44
2023-01-03T18:43:08.075Z,102224.09
2023-01-03T18:45:33.680Z,102209.44
2023-01-03T18:47:59.257Z,102211.16
2023-01-03T18:50:24.841Z,102204.78
2023-01-03T18:52:50.398Z,102210.28
2023-01-03T18:55:16.906Z,102207.53
2023-01-03T18:57:42.646Z,102197.34
2023-01-03T19:00:13.932Z,102200.13
2023-01-03T19:02:39.675Z,102200.13
2023-01-03T19:05:05.398Z,102188.22
2023-01-03T19:07:31.271Z,102184.63
2023-01-03T19:09:57.099Z,102183.56
2023-01-03T19:12:22.669Z,102167.00
2023-01-03T19:14:48.224Z,102157.84
2023-01-03T19:17:15.564Z,102143.22
2023-01-03T19:19:41.129Z,102143.22
2023-01-03T19:22:11.696Z,102146.00
2023-01-03T19:24:39.384Z,102147.69
2023-01-03T19:27:09.543Z,102141.31
2023-01-03T19:29:36.063Z,102135.78
2023-01-03T19:32:03.635Z,102137.47
2023-01-03T19:34:29.227Z,102135.78
2023-01-03T19:36:54.812Z,102135.78
2023-01-03T19:39:25.129Z,102133.03
2023-01-03T19:42:12.008Z,102134.94
2023-01-03T19:44:37.647Z,102141.31
2023-01-03T19:47:03.563Z,102138.53
2023-01-03T19:49:29.215Z,102137.72
2023-01-03T19:51:56.235Z,102141.31
2023-01-03T19:54:22.216Z,102131.34
2023-01-03T19:56:47.839Z,102133.88
2023-01-03T19:59:21.127Z,102128.38
2023-01-03T20:02:22.853Z,102128.38
2023-01-03T20:04:32.318Z,102132.78
2023-01-03T20:06:57.985Z,102127.50
2023-01-03T20:09:23.560Z,102128.38
2023-01-03T20:11:50.965Z,102133.03
2023-01-03T20:14:18.475Z,102127.50
2023-01-03T20:16:44.132Z,102133.03
2023-01-03T20:19:12.082Z,102131.13
2023-01-03T20:21:37.755Z,102128.38
2023-01-03T20:24:04.849Z,102112.88
2023-01-03T20:26:31.167Z,102105.44
2023-01-03T20:28:57.210Z,102089.75
2023-01-03T20:31:22.855Z,102086.13
2023-01-03T20:33:48.439Z,102071.50
2023-01-03T20:36:22.707Z,102079.78
2023-01-03T20:38:49.558Z,102084.47
2023-01-03T20:41:15.904Z,102084.22
2023-01-03T20:43:41.932Z,102077.00
2023-01-03T20:46:10.990Z,102073.19
2023-01-03T20:48:36.564Z,102070.44
2023-01-03T20:51:02.110Z,102072.31
2023-01-03T20:53:27.666Z,102075.09
2023-01-03T20:55:53.337Z,102066.81
2023-01-03T20:58:19.897Z,102066.81
2023-01-03T21:00:45.635Z,102070.44
2023-01-03T21:03:11.407Z,102061.28
2023-01-03T21:05:37.427Z,102061.28
2023-01-03T21:08:23.363Z,102053.00
2023-01-03T21:10:52.070Z,102064.03
2023-01-03T21:13:18.033Z,102063.22
2023-01-03T21:15:43.584Z,102056.63
2023-01-03T21:18:09.156Z,102066.56
2023-01-03T21:20:34.721Z,102064.03
2023-01-03T21:23:00.287Z,102058.53
2023-01-03T21:25:27.673Z,102049.19
2023-01-03T21:27:53.267Z,102050.25
2023-01-03T21:30:19.256Z,102051.13
2023-01-03T21:32:44.825Z,102048.34
2023-01-03T21:35:12.444Z,102043.66
2023-01-03T21:37:38.000Z,102031.81
2023-01-03T21:40:03.650Z,102025.41
2023-01-03T21:42:49.104Z,102025.41
2023-01-03T21:45:14.662Z,102019.66
2023-01-03T21:47:40.215Z,102013.31
2023-01-03T21:50:06.191Z,102016.06
2023-01-03T21:52:31.759Z,102002.50
2023-01-03T21:54:57.705Z,102007.81
2023-01-03T21:57:23.632Z,102000.59
2023-01-03T21:59:49.263Z,102003.13
2023-01-03T22:02:34.895Z,101995.94
2023-01-03T22:05:00.552Z,101991.47
2023-01-03T22:07:26.104Z,101996.75
2023-01-03T22:10:11.568Z,101984.91
2023-01-03T22:12:37.128Z,101979.38
2023-01-03T22:15:02.741Z,101976.63
2023-01-03T22:17:28.301Z,101973.00
2023-01-03T22:19:53.850Z,101982.97
2023-01-03T22:22:19.429Z,101980.22
2023-01-03T22:24:45.034Z,101977.44
2023-01-03T22:27:10.600Z,101984.91
2023-01-03T22:29:36.157Z,101986.78
2023-01-03T22:32:01.755Z,101985.72
2023-01-03T22:34:27.338Z,101980.22
2023-01-03T22:36:52.916Z,101987.66
2023-01-03T22:39:18.477Z,101974.91
2023-01-03T22:41:44.048Z,101976.63
2023-01-03T22:44:09.735Z,101973.84
2023-01-03T22:46:35.294Z,101975.53
2023-01-03T22:49:00.863Z,101965.59
2023-01-03T22:51:26.480Z,101967.47
2023-01-03T22:53:52.040Z,101965.59
2023-01-03T22:56:17.593Z,101968.34
2023-01-03T22:58:43.370Z,101957.31
2023-01-03T23:01:11.223Z,101951.78
2023-01-03T23:03:36.918Z,101947.09
2023-01-03T23:06:03.432Z,101938.81
2023-01-03T23:08:30.187Z,101928.63
2023-01-03T23:11:15.645Z,101922.28
2023-01-03T23:13:41.192Z,101917.81
2023-01-03T23:16:06.880Z,101918.69
2023-01-03T23:18:32.440Z,101915.91
2023-01-03T23:21:02.590Z,101907.63
2023-01-03T23:23:28.154Z,101906.53
2023-01-03T23:25:53.748Z,101894.69
2023-01-03T23:28:19.311Z,101897.44
2023-01-03T23:30:44.909Z,101889.16
2023-01-03T23:33:10.523Z,101885.56
2023-01-03T23:35:36.077Z,101876.44
2023-01-03T23:38:02.296Z,101869.00
2023-01-03T23:40:27.855Z,101863.50
2023-01-03T23:42:53.415Z,101866.25
2023-01-03T23:45:18.966Z,101851.59
2023-01-03T23:47:44.521Z,101846.06
2023-01-03T23:50:10.081Z,101853.28
2023-01-03T23:52:35.634Z,101840.56
2023-01-03T23:55:05.362Z,101832.28
2023-01-03T23:57:35.903Z,101837.81
